sensor_id;sensor_type;location;lat;lon;timestamp;pressure;altitude;pressure_sealevel;temperature;humidity
69667;BME280;66534;52.370;4.832;2023-03-23T00:00:01;100078.88;;;11.63;100.00
69667;BME280;66534;52.370;4.832;2023-03-23T00:00:31;100070.16;;;11.62;100.00
69667;BME280;66534;52.370;4.832;2023-03-23T00:01:03;100076.97;;;11.65;100.00
69667;BME280;66534;52.370;4.832;2023-03-23T00:01:34;100074.47;;;11.63;100.00
69667;BME280;66534;52.370;4.832;2023-03-23T00:02:07;100080.56;;;11.64;100.00
69667;BME280;66534;52.370;4.832;2023-03-23T00:02:37;100083.19;;;11.64;100.00
69667;BME280;66534;52.370;4.832;2023-03-23T00:03:08;100081.41;;;11.64;100.00
69667;BME280;66534;52.370;4.832;2023-03-23T00:03:39;100086.66;;;11.64;100.00
69667;BME280;66534;52.370;4.832;2023-03-23T00:04:11;100080.28;;;11.68;100.00
69667;BME280;66534;52.370;4.832;2023-03-23T00:04:42;100076.03;;;11.66;100.00
69667;BME280;66534;52.370;4.832;2023-03-23T00:05:12;100080.44;;;11.65;100.00
69667;BME280;66534;52.370;4.832;2023-03-23T00:05:43;100079.59;;;11.65;100.00
69667;BME280;66534;52.370;4.832;2023-03-23T00:06:20;100079.59;;;11.65;100.00
69667;BME280;66534;52.370;4.832;2023-03-23T00:06:50;100076.91;;;11.66;100.00
69667;BME280;66534;52.370;4.832;2023-03-23T00:07:22;100079.59;;;11.65;100.00
69667;BME280;66534;52.370;4.832;2023-03-23T00:07:57;100079.44;;;11.68;100.00
69667;BME280;66534;52.370;4.832;2023-03-23T00:08:33;100080.38;;;11.67;100.00
69667;BME280;66534;52.370;4.832;2023-03-23T00:09:08;100075.84;;;11.69;100.00
69667;BME280;66534;52.370;4.832;2023-03-23T00:09:40;100072.38;;;11.68;100.00
69667;BME280;66534;52.370;4.832;2023-03-23T00:10:11;100072.38;;;11.68;100.00
69667;BME280;66534;52.370;4.832;2023-03-23T00:10:41;100070.88;;;11.64;100.00
69667;BME280;66534;52.370;4.832;2023-03-23T00:11:12;100079.44;;;11.68;100.00
69667;BME280;66534;52.370;4.832;2023-03-23T00:11:49;100063.66;;;11.68;100.00
69667;BME280;66534;52.370;4.832;2023-03-23T00:12:27;100081.94;;;11.69;100.00
69667;BME280;66534;52.370;4.832;2023-03-23T00:13:03;100072.09;;;11.73;100.00
69667;BME280;66534;52.370;4.832;2023-03-23T00:13:34;100080.09;;;11.71;100.00
69667;BME280;66534;52.370;4.832;2023-03-23T00:14:05;100075.78;;;11.70;100.00
69667;BME280;66534;52.370;4.832;2023-03-23T00:14:35;100077.19;;;11.76;100.00
69667;BME280;66534;52.370;4.832;2023-03-23T00:15:11;100084.28;;;11.74;100.00
69667;BME280;66534;52.370;4.832;2023-03-23T00:15:42;100074.72;;;11.73;100.00
69667;BME280;66534;52.370;4.832;2023-03-23T00:16:13;100068.75;;;11.71;100.00
69667;BME280;66534;52.370;4.832;2023-03-23T00:16:47;100079.97;;;11.73;100.00
69667;BME280;66534;52.370;4.832;2023-03-23T00:17:19;100087.13;;;11.71;100.00
69667;BME280;66534;52.370;4.832;2023-03-23T00:17:49;100084.50;;;11.71;100.00
69667;BME280;66534;52.370;4.832;2023-03-23T00:18:21;100072.94;;;11.73;100.00
69667;BME280;66534;52.370;4.832;2023-03-23T00:18:51;100080.28;;;11.68;100.00
69667;BME280;66534;52.370;4.832;2023-03-23T00:19:22;100077.47;;;11.71;100.00
69667;BME280;66534;52.370;4.832;2023-03-23T00:19:52;100073.06;;;11.72;100.00
69667;BME280;66534;52.370;4.832;2023-03-23T00:20:23;100074.91;;;11.70;100.00
69667;BME280;66534;52.370;4.832;2023-03-23T00:20:55;100081.78;;;11.72;100.00
69667;BME280;66534;52.370;4.832;2023-03-23T00:21:28;100071.38;;;11.71;100.00
69667;BME280;66534;52.370;4.832;2023-03-23T00:22:04;100073.72;;;11.76;100.00
69667;BME280;66534;52.370;4.832;2023-03-23T00:22:36;100068.47;;;11.76;100.00
69667;BME280;66534;52.370;4.832;2023-03-23T00:23:08;100074.56;;;11.76;100.00
69667;BME280;66534;52.370;4.832;2023-03-23T00:23:38;100069.97;;;11.80;100.00
69667;BME280;66534;52.370;4.832;2023-03-23T00:24:41;100063.94;;;11.78;100.00
69667;BME280;66534;52.370;4.832;2023-03-23T00:25:12;100062.16;;;11.78;100.00
69667;BME280;66534;52.370;4.832;2023-03-23T00:25:44;100074.38;;;11.79;100.00
69667;BME280;66534;52.370;4.832;2023-03-23T00:26:15;100064.69;;;11.80;100.00
69667;BME280;66534;52.370;4.832;2023-03-23T00:26:46;100068.47;;;11.76;100.00
69667;BME280;66534;52.370;4.832;2023-03-23T00:27:18;100075.28;;;11.78;100.00
69667;BME280;66534;52.370;4.832;2023-03-23T00:27:48;100067.41;;;11.78;100.00
69667;BME280;66534;52.370;4.832;2023-03-23T00:28:19;100069.97;;;11.80;100.00
69667;BME280;66534;52.370;4.832;2023-03-23T00:28:57;100058.69;;;11.78;100.00
69667;BME280;66534;52.370;4.832;2023-03-23T00:29:30;100056.16;;;11.76;100.00
69667;BME280;66534;52.370;4.832;2023-03-23T00:30:02;100064.78;;;11.78;100.00
69667;BME280;66534;52.370;4.832;2023-03-23T00:30:34;100067.50;;;11.77;100.00
69667;BME280;66534;52.370;4.832;2023-03-23T00:31:05;100069.19;;;11.78;100.00
69667;BME280;66534;52.370;4.832;2023-03-23T00:31:37;100053.53;;;11.76;100.00
69667;BME280;66534;52.370;4.832;2023-03-23T00:32:08;100057.94;;;11.76;100.00
69667;BME280;66534;52.370;4.832;2023-03-23T00:32:42;100058.97;;;11.73;100.00
69667;BME280;66534;52.370;4.832;2023-03-23T00:33:13;100057.19;;;11.73;100.00
69667;BME280;66534;52.370;4.832;2023-03-23T00:33:43;100051.19;;;11.71;100.00
69667;BME280;66534;52.370;4.832;2023-03-23T00:34:15;100051.19;;;11.71;100.00
69667;BME280;66534;52.370;4.832;2023-03-23T00:34:49;100056.53;;;11.70;100.00
69667;BME280;66534;52.370;4.832;2023-03-23T00:35:20;100057.47;;;11.69;100.00
69667;BME280;66534;52.370;4.832;2023-03-23T00:35:50;100058.13;;;11.72;100.00
69667;BME280;66534;52.370;4.832;2023-03-23T00:36:22;100049.41;;;11.72;100.00
69667;BME280;66534;52.370;4.832;2023-03-23T00:36:54;100048.28;;;11.76;100.00
69667;BME280;66534;52.370;4.832;2023-03-23T00:37:26;100051.09;;;11.73;100.00
69667;BME280;66534;52.370;4.832;2023-03-23T00:37:57;100050.13;;;11.74;100.00
69667;BME280;66534;52.370;4.832;2023-03-23T00:38:28;100044.16;;;11.72;100.00
69667;BME280;66534;52.370;4.832;2023-03-23T00:38:59;100049.84;;;11.79;100.00
69667;BME280;66534;52.370;4.832;2023-03-23T00:39:30;100041.34;;;11.75;100.00
69667;BME280;66534;52.370;4.832;2023-03-23T00:40:01;100038.78;;;11.73;100.00
69667;BME280;66534;52.370;4.832;2023-03-23T00:40:38;100040.88;;;11.68;100.00
69667;BME280;66534;52.370;4.832;2023-03-23T00:41:09;100036.44;;;11.69;100.00
69667;BME280;66534;52.370;4.832;2023-03-23T00:41:42;100040.56;;;11.73;100.00
69667;BME280;66534;52.370;4.832;2023-03-23T00:42:13;100045.84;;;11.73;100.00
69667;BME280;66534;52.370;4.832;2023-03-23T00:42:45;100047.50;;;11.74;100.00
69667;BME280;66534;52.370;4.832;2023-03-23T00:43:17;100045.00;;;11.72;100.00
69667;BME280;66534;52.370;4.832;2023-03-23T00:43:48;100043.31;;;11.71;100.00
69667;BME280;66534;52.370;4.832;2023-03-23T00:44:19;99861.91;;;10.62;100.00
69667;BME280;66534;52.370;4.832;2023-03-23T00:44:53;100038.78;;;11.73;100.00
69667;BME280;66534;52.370;4.832;2023-03-23T00:45:30;100035.44;;;11.71;100.00
69667;BME280;66534;52.370;4.832;2023-03-23T00:46:00;100034.66;;;11.69;100.00
69667;BME280;66534;52.370;4.832;2023-03-23T00:46:31;100044.34;;;11.69;100.00
69667;BME280;66534;52.370;4.832;2023-03-23T00:47:02;100043.97;;;11.75;100.00
69667;BME280;66534;52.370;4.832;2023-03-23T00:47:33;100043.88;;;11.77;100.00
69667;BME280;66534;52.370;4.832;2023-03-23T00:48:06;100043.69;;;11.80;100.00
69667;BME280;66534;52.370;4.832;2023-03-23T00:48:36;100041.97;;;11.79;100.00
69667;BME280;66534;52.370;4.832;2023-03-23T00:49:15;100040.50;;;11.75;100.00
69667;BME280;66534;52.370;4.832;2023-03-23T00:49:48;100037.88;;;11.75;100.00
69667;BME280;66534;52.370;4.832;2023-03-23T00:50:20;100031.75;;;11.74;100.00
69667;BME280;66534;52.370;4.832;2023-03-23T00:50:50;100044.03;;;11.73;100.00
69667;BME280;66534;52.370;4.832;2023-03-23T00:51:22;100038.78;;;11.73;100.00
69667;BME280;66534;52.370;4.832;2023-03-23T00:51:54;100039.63;;;11.74;100.00
69667;BME280;66534;52.370;4.832;2023-03-23T00:52:27;100037.22;;;11.71;100.00
69667;BME280;66534;52.370;4.832;2023-03-23T00:52:59;100034.38;;;11.74;100.00
69667;BME280;66534;52.370;4.832;2023-03-23T00:53:29;100034.97;;;11.79;100.00
69667;BME280;66534;52.370;4.832;2023-03-23T00:54:00;100034.19;;;11.77;100.00
69667;BME280;66534;52.370;4.832;2023-03-23T00:54:30;100035.13;;;11.76;100.00
69667;BME280;66534;52.370;4.832;2023-03-23T00:55:01;100031.38;;;11.80;100.00
69667;BME280;66534;52.370;4.832;2023-03-23T00:55:32;100033.06;;;11.81;100.00
69667;BME280;66534;52.370;4.832;2023-03-23T00:56:03;100033.34;;;11.77;100.00
69667;BME280;66534;52.370;4.832;2023-03-23T00:56:35;100036.16;;;11.73;100.00
69667;BME280;66534;52.370;4.832;2023-03-23T00:57:06;100036.44;;;11.69;100.00
69667;BME280;66534;52.370;4.832;2023-03-23T00:57:36;100034.47;;;11.72;100.00
69667;BME280;66534;52.370;4.832;2023-03-23T00:58:07;100034.31;;;11.76;100.00
69667;BME280;66534;52.370;4.832;2023-03-23T00:58:37;100035.13;;;11.76;100.00
69667;BME280;66534;52.370;4.832;2023-03-23T00:59:08;100030.00;;;11.75;100.00
69667;BME280;66534;52.370;4.832;2023-03-23T00:59:39;100032.81;;;11.71;100.00
69667;BME280;66534;52.370;4.832;2023-03-23T01:00:10;100036.38;;;11.70;100.00
69667;BME280;66534;52.370;4.832;2023-03-23T01:00:41;100032.16;;;11.68;100.00
69667;BME280;66534;52.370;4.832;2023-03-23T01:01:12;100024.91;;;11.71;100.00
69667;BME280;66534;52.370;4.832;2023-03-23T01:01:42;100036.25;;;11.72;100.00
69667;BME280;66534;52.370;4.832;2023-03-23T01:02:13;100027.38;;;11.75;100.00
69667;BME280;66534;52.370;4.832;2023-03-23T01:02:43;100027.38;;;11.75;100.00
69667;BME280;66534;52.370;4.832;2023-03-23T01:03:14;100037.22;;;11.71;100.00
69667;BME280;66534;52.370;4.832;2023-03-23T01:03:48;100030.84;;;11.75;100.00
69667;BME280;66534;52.370;4.832;2023-03-23T01:04:19;100031.97;;;11.71;100.00
69667;BME280;66534;52.370;4.832;2023-03-23T01:04:50;100032.03;;;11.69;100.00
69667;BME280;66534;52.370;4.832;2023-03-23T01:05:22;100029.41;;;11.69;100.00
69667;BME280;66534;52.370;4.832;2023-03-23T01:05:52;100030.91;;;11.73;100.00
69667;BME280;66534;52.370;4.832;2023-03-23T01:06:23;100036.16;;;11.73;100.00
69667;BME280;66534;52.370;4.832;2023-03-23T01:06:53;100031.97;;;11.71;100.00
69667;BME280;66534;52.370;4.832;2023-03-23T01:07:26;100039.72;;;11.72;100.00
69667;BME280;66534;52.370;4.832;2023-03-23T01:07:59;100041.53;;;11.72;100.00
69667;BME280;66534;52.370;4.832;2023-03-23T01:08:29;100031.66;;;11.76;100.00
69667;BME280;66534;52.370;4.832;2023-03-23T01:09:02;100035.13;;;11.76;100.00
69667;BME280;66534;52.370;4.832;2023-03-23T01:09:33;100033.34;;;11.77;100.00
69667;BME280;66534;52.370;4.832;2023-03-23T01:10:03;100035.13;;;11.76;100.00
69667;BME280;66534;52.370;4.832;2023-03-23T01:10:34;100037.22;;;11.71;100.00
69667;BME280;66534;52.370;4.832;2023-03-23T01:11:08;100037.28;;;11.69;100.00
69667;BME280;66534;52.370;4.832;2023-03-23T01:11:39;100032.16;;;11.68;100.00
69667;BME280;66534;52.370;4.832;2023-03-23T01:12:09;100030.53;;;11.65;100.00
69667;BME280;66534;52.370;4.832;2023-03-23T01:12:40;100036.25;;;11.72;100.00
69667;BME280;66534;52.370;4.832;2023-03-23T01:13:11;100030.91;;;11.73;100.00
69667;BME280;66534;52.370;4.832;2023-03-23T01:13:42;100030.34;;;11.68;100.00
69667;BME280;66534;52.370;4.832;2023-03-23T01:14:13;100026.59;;;11.72;100.00
69667;BME280;66534;52.370;4.832;2023-03-23T01:14:45;100032.31;;;11.79;100.00
69667;BME280;66534;52.370;4.832;2023-03-23T01:15:18;100028.38;;;11.86;100.00
69667;BME280;66534;52.370;4.832;2023-03-23T01:15:49;100024.91;;;11.86;100.00
69667;BME280;66534;52.370;4.832;2023-03-23T01:16:19;100019.47;;;11.75;100.00
69667;BME280;66534;52.370;4.832;2023-03-23T01:16:51;100023.97;;;11.72;100.00
69667;BME280;66534;52.370;4.832;2023-03-23T01:17:21;100022.00;;;11.76;100.00
69667;BME280;66534;52.370;4.832;2023-03-23T01:17:52;100015.25;;;11.72;100.00
69667;BME280;66534;52.370;4.832;2023-03-23T01:18:22;100015.91;;;11.76;100.00
69667;BME280;66534;52.370;4.832;2023-03-23T01:18:53;100011.59;;;11.75;100.00
69667;BME280;66534;52.370;4.832;2023-03-23T01:19:24;100015.25;;;11.72;100.00
69667;BME280;66534;52.370;4.832;2023-03-23T01:19:55;100007.19;;;11.75;100.00
69667;BME280;66534;52.370;4.832;2023-03-23T01:20:26;100005.69;;;11.71;100.00
69667;BME280;66534;52.370;4.832;2023-03-23T01:21:03;100009.03;;;11.73;100.00
69667;BME280;66534;52.370;4.832;2023-03-23T01:21:35;100000.31;;;11.72;100.00
69667;BME280;66534;52.370;4.832;2023-03-23T01:22:06;100019.47;;;11.75;100.00
69667;BME280;66534;52.370;4.832;2023-03-23T01:22:37;100008.09;;;11.74;100.00
69667;BME280;66534;52.370;4.832;2023-03-23T01:23:08;100008.22;;;11.72;100.00
69667;BME280;66534;52.370;4.832;2023-03-23T01:23:38;100005.41;;;11.76;100.00
69667;BME280;66534;52.370;4.832;2023-03-23T01:24:09;100007.91;;;11.77;100.00
69667;BME280;66534;52.370;4.832;2023-03-23T01:24:40;100002.66;;;11.77;100.00
69667;BME280;66534;52.370;4.832;2023-03-23T01:25:11;99991.19;;;11.78;100.00
69667;BME280;66534;52.370;4.832;2023-03-23T01:25:42;99994.34;;;11.85;100.00
69667;BME280;66534;52.370;4.832;2023-03-23T01:26:16;99984.09;;;11.80;100.00
69667;BME280;66534;52.370;4.832;2023-03-23T01:26:48;99988.56;;;11.78;100.00
69667;BME280;66534;52.370;4.832;2023-03-23T01:27:19;99988.69;;;11.77;100.00
69667;BME280;66534;52.370;4.832;2023-03-23T01:27:49;99993.75;;;11.80;100.00
69667;BME280;66534;52.370;4.832;2023-03-23T01:28:20;99992.16;;;11.77;100.00
69667;BME280;66534;52.370;4.832;2023-03-23T01:28:51;99986.78;;;11.79;100.00
69667;BME280;66534;52.370;4.832;2023-03-23T01:29:22;99991.72;;;11.85;100.00
69667;BME280;66534;52.370;4.832;2023-03-23T01:29:52;100000.69;;;11.81;100.00
69667;BME280;66534;52.370;4.832;2023-03-23T01:30:23;100002.38;;;11.82;100.00
69667;BME280;66534;52.370;4.832;2023-03-23T01:30:59;100003.44;;;11.79;100.00
69667;BME280;66534;52.370;4.832;2023-03-23T01:31:33;99994.59;;;11.80;100.00
69667;BME280;66534;52.370;4.832;2023-03-23T01:32:06;99993.00;;;11.78;100.00
69667;BME280;66534;52.370;4.832;2023-03-23T01:32:36;100001.53;;;11.81;100.00
69667;BME280;66534;52.370;4.832;2023-03-23T01:33:07;99996.28;;;11.81;100.00
69667;BME280;66534;52.370;4.832;2023-03-23T01:33:38;99999.00;;;11.80;100.00
69667;BME280;66534;52.370;4.832;2023-03-23T01:34:09;99988.50;;;11.80;100.00
69667;BME280;66534;52.370;4.832;2023-03-23T01:34:40;100002.22;;;11.85;100.00
69667;BME280;66534;52.370;4.832;2023-03-23T01:35:12;99988.50;;;11.80;100.00
69667;BME280;66534;52.370;4.832;2023-03-23T01:35:43;99995.91;;;11.73;100.00
69667;BME280;66534;52.370;4.832;2023-03-23T01:36:14;99992.72;;;11.68;100.00
69667;BME280;66534;52.370;4.832;2023-03-23T01:36:48;99995.06;;;11.72;100.00
69667;BME280;66534;52.370;4.832;2023-03-23T01:37:18;99997.81;;;11.71;100.00
69667;BME280;66534;52.370;4.832;2023-03-23T01:37:49;99990.75;;;11.71;100.00
69667;BME280;66534;52.370;4.832;2023-03-23T01:38:20;99986.25;;;11.73;100.00
69667;BME280;66534;52.370;4.832;2023-03-23T01:38:51;99993.00;;;11.78;100.00
69667;BME280;66534;52.370;4.832;2023-03-23T01:39:22;99982.16;;;11.84;100.00
69667;BME280;66534;52.370;4.832;2023-03-23T01:39:53;99989.34;;;11.80;100.00
69667;BME280;66534;52.370;4.832;2023-03-23T01:40:26;99992.25;;;11.76;100.00
69667;BME280;66534;52.370;4.832;2023-03-23T01:40:57;99987.94;;;11.75;100.00
69667;BME280;66534;52.370;4.832;2023-03-23T01:41:28;99978.34;;;11.73;100.00
69667;BME280;66534;52.370;4.832;2023-03-23T01:41:58;99983.91;;;11.69;100.00
69667;BME280;66534;52.370;4.832;2023-03-23T01:42:30;99975.84;;;11.72;100.00
69667;BME280;66534;52.370;4.832;2023-03-23T01:43:07;99976.31;;;11.64;100.00
69667;BME280;66534;52.370;4.832;2023-03-23T01:45:50;99992.91;;;11.65;100.00
69667;BME280;66534;52.370;4.832;2023-03-23T01:46:20;99994.53;;;11.67;100.00
69667;BME280;66534;52.370;4.832;2023-03-23T01:46:52;99995.38;;;11.68;100.00
69667;BME280;66534;52.370;4.832;2023-03-23T01:47:24;99997.03;;;11.69;100.00
69667;BME280;66534;52.370;4.832;2023-03-23T01:49:09;99988.31;;;11.68;100.00
69667;BME280;66534;52.370;4.832;2023-03-23T01:49:44;99980.25;;;11.71;100.00
69667;BME280;66534;52.370;4.832;2023-03-23T01:50:18;99987.28;;;11.71;100.00
69667;BME280;66534;52.370;4.832;2023-03-23T01:51:03;99988.13;;;11.71;100.00
69667;BME280;66534;52.370;4.832;2023-03-23T01:51:40;99989.34;;;11.66;100.00
69667;BME280;66534;52.370;4.832;2023-03-23T01:52:15;99986.66;;;11.67;100.00
69667;BME280;66534;52.370;4.832;2023-03-23T01:52:49;99986.72;;;11.66;100.00
69667;BME280;66534;52.370;4.832;2023-03-23T01:53:24;99997.16;;;11.67;100.00
69667;BME280;66534;52.370;4.832;2023-03-23T01:53:59;99992.84;;;11.66;100.00
69667;BME280;66534;52.370;4.832;2023-03-23T01:54:33;99987.47;;;11.68;100.00
69667;BME280;66534;52.370;4.832;2023-03-23T01:55:08;99989.25;;;11.67;100.00
69667;BME280;66534;52.370;4.832;2023-03-23T01:55:39;99989.34;;;11.66;100.00
69667;BME280;66534;52.370;4.832;2023-03-23T01:56:12;99985.88;;;11.65;100.00
69667;BME280;66534;52.370;4.832;2023-03-23T01:56:57;99980.91;;;11.61;100.00
69667;BME280;66534;52.370;4.832;2023-03-23T01:57:31;99981.38;;;11.67;100.00
69667;BME280;66534;52.370;4.832;2023-03-23T01:58:02;99984.84;;;11.68;100.00
69667;BME280;66534;52.370;4.832;2023-03-23T01:58:33;99980.53;;;11.67;100.00
69667;BME280;66534;52.370;4.832;2023-03-23T01:59:07;99980.34;;;11.70;100.00
69667;BME280;66534;52.370;4.832;2023-03-23T01:59:38;99977.09;;;11.66;100.00
69667;BME280;66534;52.370;4.832;2023-03-23T02:00:15;99972.66;;;11.67;100.00
69667;BME280;66534;52.370;4.832;2023-03-23T02:00:45;99975.06;;;11.70;100.00
69667;BME280;66534;52.370;4.832;2023-03-23T02:01:17;99971.59;;;11.69;100.00
69667;BME280;66534;52.370;4.832;2023-03-23T02:01:48;99974.25;;;11.69;100.00
69667;BME280;66534;52.370;4.832;2023-03-23T02:02:23;99968.13;;;11.69;100.00
69667;BME280;66534;52.370;4.832;2023-03-23T02:02:54;99972.56;;;11.68;100.00
69667;BME280;66534;52.370;4.832;2023-03-23T02:03:25;99970.78;;;11.69;100.00
69667;BME280;66534;52.370;4.832;2023-03-23T02:03:59;99974.53;;;11.65;100.00
69667;BME280;66534;52.370;4.832;2023-03-23T02:04:29;99974.44;;;11.66;100.00
69667;BME280;66534;52.370;4.832;2023-03-23T02:05:04;99963.00;;;11.67;100.00
69667;BME280;66534;52.370;4.832;2023-03-23T02:05:43;99971.81;;;11.66;100.00
69667;BME280;66534;52.370;4.832;2023-03-23T02:06:14;99972.84;;;11.64;100.00
69667;BME280;66534;52.370;4.832;2023-03-23T02:06:47;99967.41;;;11.67;100.00
69667;BME280;66534;52.370;4.832;2023-03-23T02:07:21;99969.28;;;11.65;100.00
69667;BME280;66534;52.370;4.832;2023-03-23T02:07:53;99971.06;;;11.64;100.00
69667;BME280;66534;52.370;4.832;2023-03-23T02:08:26;99969.19;;;11.66;100.00
69667;BME280;66534;52.370;4.832;2023-03-23T02:08:58;99967.41;;;11.67;100.00
69667;BME280;66534;52.370;4.832;2023-03-23T02:09:29;99975.38;;;11.65;100.00
69667;BME280;66534;52.370;4.832;2023-03-23T02:10:00;99975.19;;;11.68;100.00
69667;BME280;66534;52.370;4.832;2023-03-23T02:10:31;99966.56;;;11.66;100.00
69667;BME280;66534;52.370;4.832;2023-03-23T02:11:10;99960.38;;;11.67;100.00
69667;BME280;66534;52.370;4.832;2023-03-23T02:11:43;99959.31;;;11.70;100.00
69667;BME280;66534;52.370;4.832;2023-03-23T02:12:14;99962.59;;;11.73;100.00
69667;BME280;66534;52.370;4.832;2023-03-23T02:12:45;99962.16;;;11.67;100.00
69667;BME280;66534;52.370;4.832;2023-03-23T02:13:16;99961.22;;;11.68;100.00
69667;BME280;66534;52.370;4.832;2023-03-23T02:13:47;99956.06;;;11.66;100.00
69667;BME280;66534;52.370;4.832;2023-03-23T02:14:19;99959.72;;;11.64;100.00
69667;BME280;66534;52.370;4.832;2023-03-23T02:14:51;99958.88;;;11.63;100.00
69667;BME280;66534;52.370;4.832;2023-03-23T02:15:22;99964.69;;;11.68;100.00
69667;BME280;66534;52.370;4.832;2023-03-23T02:16:03;99970.88;;;11.67;100.00
69667;BME280;66534;52.370;4.832;2023-03-23T02:17:11;99959.53;;;11.67;100.00
69667;BME280;66534;52.370;4.832;2023-03-23T02:29:43;99951.53;;;11.68;100.00
69667;BME280;66534;52.370;4.832;2023-03-23T02:33:49;99959.06;;;11.60;100.00
69667;BME280;66534;52.370;4.832;2023-03-23T02:34:29;99957.75;;;11.67;100.00
69667;BME280;66534;52.370;4.832;2023-03-23T02:35:05;99956.91;;;11.67;100.00
69667;BME280;66534;52.370;4.832;2023-03-23T02:35:50;99963.66;;;11.71;100.00
69667;BME280;66534;52.370;4.832;2023-03-23T02:36:30;99954.28;;;11.67;100.00
69667;BME280;66534;52.370;4.832;2023-03-23T02:37:09;99960.44;;;11.66;100.00
69667;BME280;66534;52.370;4.832;2023-03-23T02:37:51;99965.69;;;11.66;100.00
69667;BME280;66534;52.370;4.832;2023-03-23T02:38:31;99965.34;;;11.72;100.00
69667;BME280;66534;52.370;4.832;2023-03-23T02:39:49;99967.69;;;11.62;100.00
69667;BME280;66534;52.370;4.832;2023-03-23T02:40:24;99966.66;;;11.65;100.00
69667;BME280;66534;52.370;4.832;2023-03-23T02:40:59;99960.38;;;11.67;100.00
69667;BME280;66534;52.370;4.832;2023-03-23T02:41:34;99958.47;;;11.69;100.00
69667;BME280;66534;52.370;4.832;2023-03-23T02:42:10;99960.91;;;11.72;100.00
69667;BME280;66534;52.370;4.832;2023-03-23T02:42:47;99961.75;;;11.73;100.00
69667;BME280;66534;52.370;4.832;2023-03-23T02:43:22;99959.25;;;11.71;100.00
69667;BME280;66534;52.370;4.832;2023-03-23T02:43:56;99965.50;;;11.69;100.00
69667;BME280;66534;52.370;4.832;2023-03-23T02:44:28;99963.72;;;11.69;100.00
69667;BME280;66534;52.370;4.832;2023-03-23T02:45:05;99955.66;;;11.72;100.00
69667;BME280;66534;52.370;4.832;2023-03-23T02:45:38;99954.81;;;11.72;100.00
69667;BME280;66534;52.370;4.832;2023-03-23T02:46:12;99947.06;;;11.70;100.00
69667;BME280;66534;52.370;4.832;2023-03-23T02:46:45;99969.63;;;11.73;100.00
69667;BME280;66534;52.370;4.832;2023-03-23T02:47:19;99951.53;;;11.68;100.00
69667;BME280;66534;52.370;4.832;2023-03-23T02:47:54;99951.53;;;11.68;100.00
69667;BME280;66534;52.370;4.832;2023-03-23T02:48:27;99953.34;;;11.68;100.00
69667;BME280;66534;52.370;4.832;2023-03-23T02:49:00;99954.06;;;11.70;100.00
69667;BME280;66534;52.370;4.832;2023-03-23T02:49:34;99950.81;;;11.66;100.00
69667;BME280;66534;52.370;4.832;2023-03-23T02:50:09;99959.59;;;11.65;100.00
69667;BME280;66534;52.370;4.832;2023-03-23T02:50:44;99950.34;;;11.60;100.00
69667;BME280;66534;52.370;4.832;2023-03-23T02:51:19;99948.75;;;11.57;100.00
69667;BME280;66534;52.370;4.832;2023-03-23T02:51:52;99948.66;;;11.59;100.00
69667;BME280;66534;52.370;4.832;2023-03-23T02:52:28;99955.47;;;11.61;100.00
69667;BME280;66534;52.370;4.832;2023-03-23T02:53:00;99953.16;;;11.57;100.00
69667;BME280;66534;52.370;4.832;2023-03-23T02:53:33;99955.88;;;11.55;100.00
69667;BME280;66534;52.370;4.832;2023-03-23T02:54:06;99961.03;;;11.57;100.00
69667;BME280;66534;52.370;4.832;2023-03-23T02:54:38;99951.38;;;11.57;100.00
69667;BME280;66534;52.370;4.832;2023-03-23T02:55:09;99957.38;;;11.59;100.00
69667;BME280;66534;52.370;4.832;2023-03-23T02:55:42;99953.06;;;11.58;100.00
69667;BME280;66534;52.370;4.832;2023-03-23T02:56:14;99960.94;;;11.58;100.00
69667;BME280;66534;52.370;4.832;2023-03-23T02:56:45;99955.78;;;11.57;100.00
69667;BME280;66534;52.370;4.832;2023-03-23T02:57:17;99962.72;;;11.58;100.00
69667;BME280;66534;52.370;4.832;2023-03-23T02:57:48;99954.00;;;11.57;100.00
69667;BME280;66534;52.370;4.832;2023-03-23T02:58:22;99952.19;;;11.58;100.00
69667;BME280;66534;52.370;4.832;2023-03-23T02:58:53;99952.13;;;11.59;100.00
69667;BME280;66534;52.370;4.832;2023-03-23T02:59:24;99957.66;;;11.55;100.00
69667;BME280;66534;52.370;4.832;2023-03-23T02:59:55;99953.25;;;11.55;100.00
69667;BME280;66534;52.370;4.832;2023-03-23T03:00:26;99957.19;;;11.48;100.00
69667;BME280;66534;52.370;4.832;2023-03-23T03:00:56;99953.63;;;11.49;100.00
69667;BME280;66534;52.370;4.832;2023-03-23T03:02:45;99949.78;;;11.40;100.00
69667;BME280;66534;52.370;4.832;2023-03-23T03:03:23;99959.75;;;11.35;100.00
69667;BME280;66534;52.370;4.832;2023-03-23T03:03:58;99943.31;;;11.32;100.00
69667;BME280;66534;52.370;4.832;2023-03-23T03:04:32;99951.22;;;11.32;100.00
69667;BME280;66534;52.370;4.832;2023-03-23T03:08:04;99950.84;;;11.23;100.00
69667;BME280;66534;52.370;4.832;2023-03-23T03:10:43;99959.75;;;11.21;100.00
69667;BME280;66534;52.370;4.832;2023-03-23T03:11:21;99964.06;;;11.22;100.00
69667;BME280;66534;52.370;4.832;2023-03-23T03:11:59;99958.91;;;11.20;100.00
69667;BME280;66534;52.370;4.832;2023-03-23T03:14:13;99960.78;;;11.18;100.00
69667;BME280;66534;52.370;4.832;2023-03-23T03:14:58;99969.41;;;11.20;100.00
69667;BME280;66534;52.370;4.832;2023-03-23T03:16:42;99948.66;;;11.16;100.00
69667;BME280;66534;52.370;4.832;2023-03-23T03:17:23;99950.16;;;11.20;100.00
69667;BME280;66534;52.370;4.832;2023-03-23T03:18:07;99956.00;;;11.25;100.00
69667;BME280;66534;52.370;4.832;2023-03-23T03:19:03;99949.44;;;11.18;100.00
69667;BME280;66534;52.370;4.832;2023-03-23T03:19:39;99957.31;;;11.18;100.00